createdAt,value
2017-10-30T00:00:01.701Z,23.05
2017-10-30T00:00:05.729Z,22.60
2017-10-30T00:00:09.731Z,22.35
2017-10-30T00:00:14.747Z,18.00
2017-10-30T00:00:19.741Z,17.87
2017-10-30T00:00:23.986Z,15.83
2017-10-30T00:00:28.221Z,16.50
2017-10-30T00:00:32.450Z,17.40
2017-10-30T00:00:36.691Z,18.50
2017-10-30T00:00:40.926Z,20.05
2017-10-30T00:00:45.178Z,20.70
2017-10-30T00:00:50.199Z,22.05
2017-10-30T00:00:54.443Z,22.13
2017-10-30T00:00:58.727Z,21.35
2017-10-30T00:01:03.018Z,20.80
2017-10-30T00:01:07.740Z,21.60
2017-10-30T00:01:11.993Z,21.23
2017-10-30T00:01:17.312Z,19.75
2017-10-30T00:01:22.667Z,20.17
2017-10-30T00:01:27.244Z,20.08
2017-10-30T00:01:32.328Z,19.10
2017-10-30T00:01:36.703Z,18.80
2017-10-30T00:01:41.296Z,17.60
2017-10-30T00:01:45.729Z,16.90
2017-10-30T00:01:51.045Z,15.87
2017-10-30T00:01:56.188Z,15.23
2017-10-30T00:02:00.423Z,15.50
2017-10-30T00:02:04.722Z,15.20
2017-10-30T00:02:09.742Z,16.57
2017-10-30T00:02:13.991Z,17.70
2017-10-30T00:02:18.228Z,18.40
2017-10-30T00:02:22.460Z,18.30
2017-10-30T00:02:27.479Z,18.30
2017-10-30T00:02:32.495Z,17.67
2017-10-30T00:02:37.485Z,17.40
2017-10-30T00:02:41.740Z,16.80
2017-10-30T00:02:45.976Z,17.45
2017-10-30T00:02:50.219Z,18.10
2017-10-30T00:02:54.462Z,18.90
2017-10-30T00:02:58.706Z,19.10
2017-10-30T00:03:02.951Z,18.95
2017-10-30T00:03:07.941Z,18.05
2017-10-30T00:03:12.182Z,17.37
2017-10-30T00:03:16.429Z,17.37
2017-10-30T00:03:20.688Z,18.40
2017-10-30T00:03:24.903Z,18.15
2017-10-30T00:03:29.152Z,18.45
2017-10-30T00:03:33.392Z,19.07
2017-10-30T00:03:37.644Z,20.35
2017-10-30T00:03:41.886Z,20.25
2017-10-30T00:03:46.123Z,19.65
2017-10-30T00:03:51.167Z,19.20
2017-10-30T00:03:55.390Z,18.50
2017-10-30T00:03:59.629Z,19.15
2017-10-30T00:04:03.913Z,19.85
2017-10-30T00:04:08.149Z,20.90
2017-10-30T00:04:13.177Z,21.47
2017-10-30T00:04:17.433Z,21.60
2017-10-30T00:04:21.675Z,20.40
2017-10-30T00:04:25.956Z,20.85
2017-10-30T00:04:30.239Z,21.07
2017-10-30T00:04:34.500Z,20.60
2017-10-30T00:04:38.735Z,20.75
2017-10-30T00:04:42.984Z,22.07
2017-10-30T00:04:47.221Z,22.05
2017-10-30T00:04:51.502Z,21.90
2017-10-30T00:04:55.761Z,22.15
2017-10-30T00:05:00.772Z,21.20
2017-10-30T00:05:05.095Z,19.73
2017-10-30T00:05:10.116Z,19.25
2017-10-30T00:05:14.333Z,18.70
2017-10-30T00:05:18.592Z,19.00
2017-10-30T00:05:22.817Z,19.27
2017-10-30T00:05:27.070Z,18.75
2017-10-30T00:05:31.328Z,19.40
2017-10-30T00:05:35.609Z,19.90
2017-10-30T00:05:40.622Z,19.07
2017-10-30T00:05:45.653Z,19.03
2017-10-30T00:05:49.908Z,19.47
2017-10-30T00:05:54.152Z,19.50
2017-10-30T00:05:58.387Z,19.20
2017-10-30T00:06:02.633Z,19.50
2017-10-30T00:06:07.644Z,19.15
2017-10-30T00:06:11.888Z,19.33
2017-10-30T00:06:16.109Z,18.70
2017-10-30T00:06:20.345Z,18.05
2017-10-30T00:06:25.379Z,18.03
2017-10-30T00:06:30.392Z,18.17
2017-10-30T00:06:35.416Z,16.50
2017-10-30T00:06:40.438Z,15.90
2017-10-30T00:06:44.687Z,16.07
2017-10-30T00:06:48.948Z,15.55
2017-10-30T00:06:53.186Z,15.75
2017-10-30T00:06:57.450Z,16.30
2017-10-30T00:07:01.678Z,16.10
2017-10-30T00:07:05.930Z,15.65
2017-10-30T00:07:10.935Z,15.75
2017-10-30T00:07:15.937Z,15.80
2017-10-30T00:07:20.179Z,16.23
2017-10-30T00:07:24.438Z,16.43
2017-10-30T00:07:28.706Z,16.45
2017-10-30T00:07:32.942Z,19.60
2017-10-30T00:07:37.187Z,19.70
2017-10-30T00:07:41.446Z,19.55
2017-10-30T00:07:45.693Z,18.10
2017-10-30T00:07:49.939Z,18.50
2017-10-30T00:07:54.192Z,19.00
2017-10-30T00:07:58.437Z,18.95
2017-10-30T00:08:02.662Z,18.95
2017-10-30T00:08:07.653Z,18.85
2017-10-30T00:08:11.891Z,17.97
2017-10-30T00:08:16.151Z,17.23
2017-10-30T00:08:20.401Z,17.50
2017-10-30T00:08:24.641Z,17.35
2017-10-30T00:08:28.897Z,17.25
2017-10-30T00:08:33.366Z,13.80
2017-10-30T00:08:38.270Z,14.05
2017-10-30T00:08:43.619Z,14.07
2017-10-30T00:08:48.116Z,14.40
2017-10-30T00:08:53.213Z,13.50
2017-10-30T00:08:57.800Z,13.17
2017-10-30T00:09:02.009Z,14.07
2017-10-30T00:09:06.276Z,14.70
2017-10-30T00:09:10.506Z,15.40
2017-10-30T00:09:14.736Z,15.47
2017-10-30T00:09:18.970Z,15.30
2017-10-30T00:09:23.229Z,16.80
2017-10-30T00:09:27.479Z,17.30
2017-10-30T00:09:32.218Z,17.30
2017-10-30T00:09:36.955Z,17.55
2017-10-30T00:09:42.317Z,17.67
2017-10-30T00:09:47.003Z,19.73
2017-10-30T00:09:51.718Z,21.25
2017-10-30T00:09:56.370Z,21.97
2017-10-30T00:10:00.771Z,22.43
2017-10-30T00:10:05.036Z,23.05
2017-10-30T00:10:09.317Z,22.15
2017-10-30T00:10:13.557Z,22.60
2017-10-30T00:10:17.800Z,22.95
2017-10-30T00:10:22.034Z,21.90
2017-10-30T00:10:27.038Z,20.90
2017-10-30T00:10:31.298Z,21.07
2017-10-30T00:10:35.547Z,20.70
2017-10-30T00:10:39.792Z,21.40
2017-10-30T00:10:44.030Z,20.70
2017-10-30T00:10:48.256Z,18.70
2017-10-30T00:10:52.527Z,18.25
2017-10-30T00:10:56.780Z,18.15
2017-10-30T00:11:01.021Z,17.45
2017-10-30T00:11:05.287Z,17.27
2017-10-30T00:11:09.534Z,17.70
2017-10-30T00:11:13.765Z,17.70
2017-10-30T00:11:18.012Z,18.25
2017-10-30T00:11:22.241Z,18.60
2017-10-30T00:11:26.490Z,18.65
2017-10-30T00:11:31.308Z,18.30
2017-10-30T00:11:36.001Z,18.50
2017-10-30T00:11:41.362Z,18.67
2017-10-30T00:11:47.532Z,18.47
2017-10-30T00:11:53.491Z,18.12
2017-10-30T00:11:59.450Z,17.83
2017-10-30T00:12:03.675Z,18.70
2017-10-30T00:12:07.922Z,18.87
2017-10-30T00:12:12.950Z,18.55
2017-10-30T00:12:17.961Z,20.33
2017-10-30T00:12:22.973Z,20.07
2017-10-30T00:12:27.206Z,20.43
2017-10-30T00:12:32.318Z,20.10
2017-10-30T00:12:37.339Z,20.60
2017-10-30T00:12:42.334Z,20.23
2017-10-30T00:12:47.345Z,23.00
2017-10-30T00:12:51.576Z,23.33
2017-10-30T00:12:55.872Z,23.40
2017-10-30T00:13:00.117Z,22.60
2017-10-30T00:13:04.345Z,22.35
2017-10-30T00:13:08.577Z,22.17
2017-10-30T00:13:12.847Z,21.30
2017-10-30T00:13:17.073Z,19.00
2017-10-30T00:13:21.318Z,19.85
2017-10-30T00:13:25.542Z,20.67
2017-10-30T00:13:30.699Z,22.05
2017-10-30T00:13:34.950Z,21.87
2017-10-30T00:13:39.164Z,21.45
2017-10-30T00:13:43.423Z,20.57
2017-10-30T00:13:47.686Z,20.50
2017-10-30T00:13:52.683Z,20.55
2017-10-30T00:13:56.965Z,20.27
2017-10-30T00:14:01.210Z,19.90
2017-10-30T00:14:05.468Z,20.20
2017-10-30T00:14:09.719Z,20.95
2017-10-30T00:14:13.979Z,21.75
2017-10-30T00:14:18.211Z,21.90
2017-10-30T00:14:22.468Z,20.43
2017-10-30T00:14:26.719Z,18.75
2017-10-30T00:14:31.549Z,18.70
2017-10-30T00:14:38.513Z,19.50
2017-10-30T00:14:43.292Z,19.78
2017-10-30T00:14:51.749Z,18.70
2017-10-30T00:14:58.724Z,18.18
2017-10-30T00:15:03.102Z,17.85
2017-10-30T00:15:08.447Z,17.87
2017-10-30T00:15:13.476Z,16.90
2017-10-30T00:15:18.283Z,17.20
2017-10-30T00:15:22.676Z,18.20
2017-10-30T00:15:27.127Z,18.87
2017-10-30T00:15:31.398Z,18.30
2017-10-30T00:15:35.638Z,17.35
2017-10-30T00:15:39.983Z,17.43
2017-10-30T00:15:44.345Z,18.10
2017-10-30T00:15:49.387Z,19.15
2017-10-30T00:15:53.755Z,19.37
2017-10-30T00:15:58.933Z,19.23
2017-10-30T00:16:03.232Z,19.17
2017-10-30T00:16:07.462Z,18.50
2017-10-30T00:16:12.480Z,19.13
2017-10-30T00:16:16.715Z,19.40
2017-10-30T00:16:20.962Z,19.90
2017-10-30T00:16:25.205Z,20.05
2017-10-30T00:16:29.452Z,20.90
2017-10-30T00:16:33.685Z,21.47
2017-10-30T00:16:38.705Z,21.80
2017-10-30T00:16:43.857Z,19.53
2017-10-30T00:16:51.933Z,19.23
2017-10-30T00:16:56.253Z,21.92
2017-10-30T00:17:00.511Z,23.07
2017-10-30T00:17:04.746Z,24.20
2017-10-30T00:17:09.753Z,24.10
2017-10-30T00:17:14.003Z,23.37
2017-10-30T00:17:18.246Z,22.25
2017-10-30T00:17:23.875Z,20.93
2017-10-30T00:17:28.889Z,21.37
2017-10-30T00:17:33.900Z,21.40
2017-10-30T00:17:38.923Z,21.90
2017-10-30T00:17:44.262Z,22.47
2017-10-30T00:17:48.518Z,23.33
2017-10-30T00:17:52.890Z,21.55
2017-10-30T00:17:57.113Z,19.85
2017-10-30T00:18:01.491Z,19.70
2017-10-30T00:18:06.633Z,20.15
2017-10-30T00:18:10.972Z,21.50
2017-10-30T00:18:18.389Z,22.20
2017-10-30T00:18:25.707Z,22.50
2017-10-30T00:18:32.038Z,20.15
2017-10-30T00:18:36.736Z,20.15
2017-10-30T00:18:41.313Z,20.40
2017-10-30T00:18:45.811Z,18.90
2017-10-30T00:18:50.052Z,17.70
2017-10-30T00:18:54.316Z,17.80
2017-10-30T00:18:58.533Z,17.80
2017-10-30T00:19:02.775Z,18.00
2017-10-30T00:19:07.026Z,16.23
2017-10-30T00:19:11.766Z,15.70
2017-10-30T00:19:16.020Z,15.80
2017-10-30T00:19:21.038Z,16.95
2017-10-30T00:19:27.791Z,17.30
2017-10-30T00:19:32.058Z,18.04
2017-10-30T00:19:36.401Z,17.60
2017-10-30T00:19:40.880Z,17.27
2017-10-30T00:19:45.105Z,17.80
2017-10-30T00:19:49.333Z,18.20
2017-10-30T00:19:53.569Z,18.00
2017-10-30T00:19:57.811Z,18.23
2017-10-30T00:20:02.041Z,17.60
2017-10-30T00:20:06.298Z,17.70
2017-10-30T00:20:10.740Z,18.10
2017-10-30T00:20:14.968Z,18.60
2017-10-30T00:20:19.260Z,17.65
2017-10-30T00:20:23.519Z,17.47
2017-10-30T00:20:27.814Z,16.85
2017-10-30T00:20:32.084Z,17.10
2017-10-30T00:20:36.327Z,16.90
2017-10-30T00:20:40.581Z,16.43
2017-10-30T00:20:44.831Z,16.80
2017-10-30T00:20:49.102Z,17.20
2017-10-30T00:20:53.352Z,17.15
2017-10-30T00:20:57.648Z,16.37
2017-10-30T00:21:01.931Z,16.55
2017-10-30T00:21:06.902Z,16.40
2017-10-30T00:21:11.156Z,15.33
2017-10-30T00:21:15.407Z,14.37
2017-10-30T00:21:20.429Z,14.90
2017-10-30T00:21:24.694Z,15.50
2017-10-30T00:21:28.946Z,15.60
2017-10-30T00:21:33.960Z,15.67
2017-10-30T00:21:38.966Z,15.10
2017-10-30T00:21:43.968Z,14.77
2017-10-30T00:21:48.225Z,13.30
2017-10-30T00:21:52.457Z,13.45
2017-10-30T00:21:56.701Z,14.65
2017-10-30T00:22:01.715Z,15.05
2017-10-30T00:22:05.968Z,15.40
2017-10-30T00:22:10.256Z,16.90
2017-10-30T00:22:14.485Z,16.80
2017-10-30T00:22:18.729Z,16.30
2017-10-30T00:22:22.983Z,15.90
2017-10-30T00:22:27.218Z,15.85
2017-10-30T00:22:33.184Z,14.95
2017-10-30T00:22:37.477Z,15.20
2017-10-30T00:22:41.730Z,15.55
2017-10-30T00:22:45.982Z,16.23
2017-10-30T00:22:50.239Z,16.95
2017-10-30T00:22:54.477Z,17.70
2017-10-30T00:22:58.742Z,18.15
2017-10-30T00:23:03.024Z,18.63
2017-10-30T00:23:07.248Z,17.15
2017-10-30T00:23:11.481Z,17.75
2017-10-30T00:23:15.738Z,17.77
2017-10-30T00:23:20.034Z,17.20
2017-10-30T00:23:25.789Z,16.90
2017-10-30T00:23:30.203Z,17.40
2017-10-30T00:23:35.448Z,18.40
2017-10-30T00:23:40.197Z,20.08
2017-10-30T00:23:45.538Z,20.45
2017-10-30T00:23:50.368Z,20.12
2017-10-30T00:23:55.702Z,18.77
2017-10-30T00:24:00.107Z,18.37
2017-10-30T00:24:04.405Z,18.80
2017-10-30T00:24:08.675Z,19.20
2017-10-30T00:24:12.950Z,19.45
2017-10-30T00:24:17.221Z,20.25
2017-10-30T00:24:21.494Z,20.23
2017-10-30T00:24:27.491Z,21.20
2017-10-30T00:24:31.772Z,21.55
2017-10-30T00:24:36.012Z,21.50
2017-10-30T00:24:40.268Z,20.53
2017-10-30T00:24:44.506Z,20.45
2017-10-30T00:24:48.742Z,20.60
2017-10-30T00:24:53.765Z,20.95
2017-10-30T00:24:58.762Z,21.53
2017-10-30T00:25:03.801Z,21.10
2017-10-30T00:25:08.054Z,20.10
2017-10-30T00:25:12.303Z,19.90
2017-10-30T00:25:16.622Z,20.60
2017-10-30T00:25:20.875Z,21.70
2017-10-30T00:25:25.109Z,21.47
2017-10-30T00:25:29.532Z,20.15
2017-10-30T00:25:34.360Z,19.23
2017-10-30T00:25:40.292Z,18.65
2017-10-30T00:25:45.285Z,18.70
2017-10-30T00:25:50.804Z,18.40
2017-10-30T00:25:56.255Z,17.62
2017-10-30T00:26:01.426Z,17.57
2017-10-30T00:26:05.662Z,17.80
2017-10-30T00:26:09.920Z,17.10
2017-10-30T00:26:14.167Z,15.75
2017-10-30T00:26:18.444Z,15.35
2017-10-30T00:26:23.468Z,15.40
2017-10-30T00:26:28.476Z,15.13
2017-10-30T00:26:33.479Z,16.07
2017-10-30T00:26:37.713Z,16.63
2017-10-30T00:26:41.988Z,16.10
2017-10-30T00:26:46.224Z,16.90
2017-10-30T00:26:50.480Z,17.40
2017-10-30T00:26:54.740Z,17.20
2017-10-30T00:26:58.974Z,17.10
2017-10-30T00:27:03.252Z,17.30
2017-10-30T00:27:07.476Z,17.65
2017-10-30T00:27:11.761Z,18.03
2017-10-30T00:27:16.003Z,18.80
2017-10-30T00:27:21.010Z,18.70
2017-10-30T00:27:26.035Z,18.87
2017-10-30T00:27:30.294Z,18.27
2017-10-30T00:27:34.552Z,17.60
2017-10-30T00:27:38.812Z,17.25
2017-10-30T00:27:43.052Z,17.50
2017-10-30T00:27:47.277Z,17.05
2017-10-30T00:27:51.530Z,17.03
2017-10-30T00:27:56.554Z,16.25
2017-10-30T00:28:01.580Z,15.20
2017-10-30T00:28:06.573Z,15.40
2017-10-30T00:28:10.820Z,15.20
2017-10-30T00:28:15.055Z,15.30
2017-10-30T00:28:19.322Z,14.40
2017-10-30T00:28:23.578Z,14.20
2017-10-30T00:28:34.672Z,14.50
2017-10-30T00:28:38.905Z,15.10
2017-10-30T00:28:43.182Z,14.50
2017-10-30T00:28:48.171Z,14.00
2017-10-30T00:28:53.188Z,13.67
2017-10-30T00:28:58.197Z,13.80
2017-10-30T00:29:03.214Z,14.50
2017-10-30T00:29:08.233Z,15.17
2017-10-30T00:29:13.253Z,15.57
2017-10-30T00:29:17.489Z,15.27
2017-10-30T00:29:21.753Z,16.60
2017-10-30T00:29:25.989Z,17.50
2017-10-30T00:29:30.477Z,17.65
2017-10-30T00:29:34.928Z,18.55
2017-10-30T00:29:39.722Z,19.00
2017-10-30T00:29:45.731Z,18.80
2017-10-30T00:29:50.581Z,19.10
2017-10-30T00:29:57.127Z,20.27
2017-10-30T00:30:02.403Z,20.80
2017-10-30T00:30:07.434Z,19.93
2017-10-30T00:30:12.487Z,19.45
2017-10-30T00:30:16.734Z,19.57
2017-10-30T00:30:21.799Z,18.75
2017-10-30T00:30:26.017Z,17.80
2017-10-30T00:30:30.273Z,18.05
2017-10-30T00:30:35.292Z,17.15
2017-10-30T00:30:39.538Z,17.10
2017-10-30T00:30:43.800Z,17.80
2017-10-30T00:30:48.049Z,18.40
2017-10-30T00:30:52.312Z,18.70
2017-10-30T00:30:56.550Z,17.87
2017-10-30T00:31:00.799Z,17.35
2017-10-30T00:31:05.111Z,17.35
2017-10-30T00:31:10.481Z,16.93
2017-10-30T00:31:14.816Z,17.07
2017-10-30T00:31:19.065Z,17.10
2017-10-30T00:31:23.355Z,17.20
2017-10-30T00:31:27.639Z,16.60
2017-10-30T00:31:32.635Z,16.45
2017-10-30T00:31:37.633Z,16.23
2017-10-30T00:31:41.895Z,16.27
2017-10-30T00:31:46.119Z,16.60
2017-10-30T00:31:50.362Z,16.97
2017-10-30T00:31:56.224Z,16.35
2017-10-30T00:32:00.777Z,16.70
2017-10-30T00:32:05.348Z,16.63
2017-10-30T00:32:09.827Z,16.80
2017-10-30T00:32:14.109Z,16.63
2017-10-30T00:32:18.589Z,16.30
2017-10-30T00:32:23.369Z,15.65
2017-10-30T00:32:27.786Z,15.90
2017-10-30T00:32:32.069Z,16.20
2017-10-30T00:32:36.320Z,17.05
2017-10-30T00:32:40.587Z,17.40
2017-10-30T00:32:44.849Z,17.40
2017-10-30T00:32:49.851Z,15.93
2017-10-30T00:32:54.858Z,15.90
2017-10-30T00:32:59.125Z,16.20
2017-10-30T00:33:03.863Z,16.75
2017-10-30T00:33:08.342Z,17.83
2017-10-30T00:33:12.867Z,18.35
2017-10-30T00:33:17.697Z,18.27
2017-10-30T00:33:22.331Z,18.97
2017-10-30T00:33:27.247Z,18.73
2017-10-30T00:33:32.242Z,18.35
2017-10-30T00:33:36.483Z,18.10
2017-10-30T00:33:40.733Z,17.40
2017-10-30T00:33:45.015Z,17.60
2017-10-30T00:33:49.255Z,18.10
2017-10-30T00:33:54.251Z,18.85
2017-10-30T00:33:58.755Z,19.23
2017-10-30T00:34:02.979Z,18.70
2017-10-30T00:34:07.997Z,17.60
2017-10-30T00:34:13.016Z,17.50
2017-10-30T00:34:17.301Z,17.43
2017-10-30T00:34:21.544Z,17.37
2017-10-30T00:34:25.768Z,18.65
2017-10-30T00:34:30.054Z,19.75
2017-10-30T00:34:34.319Z,20.40
2017-10-30T00:34:39.331Z,21.13
2017-10-30T00:34:44.353Z,20.30
2017-10-30T00:34:49.395Z,19.90
2017-10-30T00:34:54.387Z,18.70
2017-10-30T00:34:59.422Z,19.00
2017-10-30T00:35:04.443Z,18.80
2017-10-30T00:35:09.431Z,19.13
2017-10-30T00:35:13.708Z,19.57
2017-10-30T00:35:18.021Z,20.35
2017-10-30T00:35:22.266Z,19.90
2017-10-30T00:35:26.519Z,18.10
2017-10-30T00:35:30.740Z,18.05
2017-10-30T00:35:35.747Z,17.15
2017-10-30T00:35:40.009Z,16.47
2017-10-30T00:35:44.273Z,16.37
2017-10-30T00:35:49.263Z,16.35
2017-10-30T00:35:53.525Z,17.03
2017-10-30T00:35:58.143Z,16.27
2017-10-30T00:36:02.391Z,16.15
2017-10-30T00:36:07.389Z,16.35
2017-10-30T00:36:11.622Z,15.47
2017-10-30T00:36:15.892Z,14.43
2017-10-30T00:36:20.152Z,13.35
2017-10-30T00:36:24.398Z,13.90
2017-10-30T00:36:28.621Z,13.35
2017-10-30T00:36:32.854Z,12.67
2017-10-30T00:36:37.082Z,13.55
2017-10-30T00:36:41.334Z,13.75
2017-10-30T00:36:45.567Z,14.00
2017-10-30T00:36:49.911Z,13.87
2017-10-30T00:36:54.152Z,13.55
2017-10-30T00:36:58.388Z,13.90
2017-10-30T00:37:02.636Z,13.97
2017-10-30T00:37:06.889Z,13.65
2017-10-30T00:37:11.160Z,14.10
2017-10-30T00:37:15.411Z,15.00
2017-10-30T00:37:20.487Z,15.17
2017-10-30T00:37:24.721Z,15.10
2017-10-30T00:37:29.746Z,15.25
2017-10-30T00:37:33.978Z,14.93
2017-10-30T00:37:38.227Z,14.20
2017-10-30T00:37:42.457Z,14.13
2017-10-30T00:37:46.724Z,14.90
2017-10-30T00:37:50.980Z,14.80
2017-10-30T00:37:55.201Z,15.25
2017-10-30T00:37:59.442Z,15.07
2017-10-30T00:38:04.468Z,14.75
2017-10-30T00:38:08.717Z,14.60
2017-10-30T00:38:12.946Z,14.55
2017-10-30T00:38:17.186Z,14.25
2017-10-30T00:38:21.439Z,15.07
2017-10-30T00:38:25.677Z,15.10
2017-10-30T00:38:29.914Z,15.35
2017-10-30T00:38:34.137Z,16.60
2017-10-30T00:38:38.383Z,16.83
2017-10-30T00:38:42.620Z,16.75
2017-10-30T00:38:46.992Z,16.20
2017-10-30T00:38:51.972Z,16.30
2017-10-30T00:38:57.003Z,15.73
2017-10-30T00:39:02.306Z,15.70
2017-10-30T00:39:07.168Z,16.73
2017-10-30T00:39:12.469Z,16.90
2017-10-30T00:39:16.941Z,17.43
2017-10-30T00:39:21.735Z,16.90
2017-10-30T00:39:26.763Z,16.87
2017-10-30T00:39:31.118Z,16.47
2017-10-30T00:39:35.365Z,15.90
2017-10-30T00:39:39.604Z,15.90
2017-10-30T00:39:44.632Z,16.37
2017-10-30T00:39:48.858Z,16.27
2017-10-30T00:39:53.122Z,15.75
2017-10-30T00:39:57.386Z,15.30
2017-10-30T00:40:01.630Z,14.95
2017-10-30T00:40:06.635Z,14.30
2017-10-30T00:40:11.625Z,14.47
2017-10-30T00:40:15.878Z,15.50
2017-10-30T00:40:20.119Z,15.60
2017-10-30T00:40:24.363Z,15.80
2017-10-30T00:40:28.589Z,16.20
2017-10-30T00:40:33.130Z,16.40
2017-10-30T00:40:37.810Z,16.35
2017-10-30T00:40:43.334Z,15.83
2017-10-30T00:40:48.079Z,15.63
2017-10-30T00:40:52.617Z,16.40
2017-10-30T00:40:57.932Z,17.93
2017-10-30T00:41:02.174Z,18.13
2017-10-30T00:41:06.411Z,18.65
2017-10-30T00:41:10.678Z,18.30
2017-10-30T00:41:14.924Z,17.05
2017-10-30T00:41:19.151Z,17.50
2017-10-30T00:41:24.162Z,17.80
2017-10-30T00:41:29.149Z,17.13
2017-10-30T00:41:33.842Z,17.23
2017-10-30T00:41:39.132Z,17.05
2017-10-30T00:41:43.537Z,17.65
2017-10-30T00:41:47.939Z,17.85
2017-10-30T00:41:52.167Z,17.55
2017-10-30T00:41:57.114Z,17.27
2017-10-30T00:42:01.633Z,17.83
2017-10-30T00:42:06.130Z,17.55
2017-10-30T00:42:10.517Z,17.17
2017-10-30T00:42:15.048Z,17.05
2017-10-30T00:42:20.655Z,16.80
2017-10-30T00:42:25.303Z,17.58
2017-10-30T00:42:29.839Z,18.55
2017-10-30T00:42:34.078Z,18.40
2017-10-30T00:42:38.324Z,17.80
2017-10-30T00:42:42.577Z,17.90
2017-10-30T00:42:46.883Z,18.45
2017-10-30T00:42:51.138Z,18.53
2017-10-30T00:42:55.378Z,18.55
2017-10-30T00:42:59.618Z,18.65
2017-10-30T00:43:03.959Z,19.40
2017-10-30T00:43:08.265Z,19.83
2017-10-30T00:43:12.576Z,19.85
2017-10-30T00:43:16.874Z,19.43
2017-10-30T00:43:21.186Z,18.90
2017-10-30T00:43:25.420Z,17.90
2017-10-30T00:43:29.723Z,17.20
2017-10-30T00:43:34.742Z,17.63
2017-10-30T00:43:39.729Z,17.63
2017-10-30T00:43:43.979Z,16.93
2017-10-30T00:43:48.203Z,16.20
2017-10-30T00:43:52.440Z,15.90
2017-10-30T00:43:57.456Z,14.60
2017-10-30T00:44:01.777Z,13.80
2017-10-30T00:44:06.795Z,13.85
2017-10-30T00:44:11.832Z,14.63
2017-10-30T00:44:16.072Z,14.67
2017-10-30T00:44:20.345Z,14.30
2017-10-30T00:44:24.598Z,14.20
2017-10-30T00:44:29.624Z,13.65
2017-10-30T00:44:33.889Z,12.97
2017-10-30T00:44:38.259Z,12.65
2017-10-30T00:44:42.524Z,12.30
2017-10-30T00:44:46.758Z,12.25
2017-10-30T00:44:50.993Z,12.20
2017-10-30T00:44:55.217Z,12.40
2017-10-30T00:45:00.231Z,13.63
2017-10-30T00:45:04.492Z,12.80
2017-10-30T00:45:08.753Z,11.80
2017-10-30T00:45:13.766Z,11.20
2017-10-30T00:45:18.750Z,11.00
2017-10-30T00:45:22.993Z,11.00
2017-10-30T00:45:27.221Z,11.23
2017-10-30T00:45:31.471Z,11.60
2017-10-30T00:45:36.485Z,11.95
2017-10-30T00:45:40.726Z,12.67
2017-10-30T00:45:44.989Z,12.60
2017-10-30T00:45:49.214Z,12.73
2017-10-30T00:45:53.460Z,13.70
2017-10-30T00:45:57.682Z,13.55
2017-10-30T00:46:01.950Z,14.05
2017-10-30T00:46:06.210Z,14.80
2017-10-30T00:46:10.502Z,15.40
2017-10-30T00:46:15.504Z,15.75
2017-10-30T00:46:20.524Z,16.23
2017-10-30T00:46:24.767Z,16.80
2017-10-30T00:46:29.032Z,16.67
2017-10-30T00:46:33.278Z,16.30
2017-10-30T00:46:37.526Z,16.40
2017-10-30T00:46:41.768Z,16.15
2017-10-30T00:46:46.029Z,18.30
2017-10-30T00:46:50.285Z,20.05
2017-10-30T00:46:54.518Z,20.50
2017-10-30T00:46:58.765Z,19.65
2017-10-30T00:47:03.006Z,18.87
2017-10-30T00:47:07.241Z,19.70
2017-10-30T00:47:11.491Z,20.50
2017-10-30T00:47:15.735Z,20.80
2017-10-30T00:47:20.733Z,21.00
2017-10-30T00:47:24.992Z,20.83
2017-10-30T00:47:30.104Z,21.15
2017-10-30T00:47:34.457Z,21.67
2017-10-30T00:47:39.184Z,22.40
2017-10-30T00:47:43.496Z,22.30
2017-10-30T00:47:47.789Z,21.27
2017-10-30T00:47:52.174Z,19.75
2017-10-30T00:47:56.487Z,19.20
2017-10-30T00:48:00.965Z,20.50
2017-10-30T00:48:05.200Z,20.00
2017-10-30T00:48:10.207Z,18.30
2017-10-30T00:48:14.459Z,17.57
2017-10-30T00:48:18.702Z,16.85
2017-10-30T00:48:22.932Z,17.60
2017-10-30T00:48:27.191Z,18.45
2017-10-30T00:48:31.436Z,19.30
2017-10-30T00:48:35.689Z,19.90
2017-10-30T00:48:39.928Z,19.15
2017-10-30T00:48:44.912Z,18.95
2017-10-30T00:48:49.156Z,18.27
2017-10-30T00:48:53.406Z,17.60
2017-10-30T00:48:57.687Z,17.75
2017-10-30T00:49:01.947Z,17.60
2017-10-30T00:49:06.953Z,18.40
2017-10-30T00:49:11.205Z,18.93
2017-10-30T00:49:15.598Z,19.95
2017-10-30T00:49:20.759Z,20.40
2017-10-30T00:49:25.098Z,18.80
2017-10-30T00:49:29.334Z,17.93
2017-10-30T00:49:33.583Z,17.70
2017-10-30T00:49:38.608Z,17.20
2017-10-30T00:49:43.597Z,17.10
2017-10-30T00:49:48.624Z,17.33
2017-10-30T00:49:52.897Z,17.80
2017-10-30T00:49:57.156Z,17.87
2017-10-30T00:50:01.413Z,17.40
2017-10-30T00:50:05.665Z,16.90
2017-10-30T00:50:09.903Z,15.73
2017-10-30T00:50:14.156Z,15.50
2017-10-30T00:50:18.418Z,14.55
2017-10-30T00:50:22.672Z,14.75
2017-10-30T00:50:26.918Z,14.57
2017-10-30T00:50:31.155Z,14.05
2017-10-30T00:50:36.156Z,13.60
2017-10-30T00:50:41.158Z,13.90
2017-10-30T00:50:46.158Z,13.80
2017-10-30T00:50:50.388Z,13.90
2017-10-30T00:50:55.401Z,13.57
2017-10-30T00:51:00.487Z,14.37
2017-10-30T00:51:04.807Z,14.90
2017-10-30T00:51:09.459Z,15.45
2017-10-30T00:51:14.629Z,15.47
2017-10-30T00:51:19.272Z,15.80
2017-10-30T00:51:24.436Z,15.97
2017-10-30T00:51:28.761Z,16.13
2017-10-30T00:51:33.009Z,16.50
2017-10-30T00:51:37.246Z,16.65
2017-10-30T00:51:41.524Z,18.40
2017-10-30T00:51:45.761Z,18.20
2017-10-30T00:51:50.023Z,18.05
2017-10-30T00:51:54.280Z,18.15
2017-10-30T00:51:58.558Z,17.43
2017-10-30T00:52:02.831Z,16.75
2017-10-30T00:52:07.057Z,16.80
2017-10-30T00:52:11.332Z,17.00
2017-10-30T00:52:15.566Z,16.95
2017-10-30T00:52:20.033Z,16.90
2017-10-30T00:52:24.306Z,17.07
2017-10-30T00:52:29.559Z,17.00
2017-10-30T00:52:33.942Z,17.30
2017-10-30T00:52:38.353Z,16.80
2017-10-30T00:52:43.138Z,15.45
2017-10-30T00:52:47.475Z,16.20
2017-10-30T00:52:51.894Z,16.35
2017-10-30T00:52:56.212Z,16.70
2017-10-30T00:53:00.450Z,16.55
2017-10-30T00:53:05.457Z,16.40
2017-10-30T00:53:10.458Z,16.10
2017-10-30T00:53:14.697Z,16.60
2017-10-30T00:53:18.951Z,17.33
2017-10-30T00:53:23.216Z,18.20
2017-10-30T00:53:27.441Z,19.60
2017-10-30T00:53:31.696Z,19.65
2017-10-30T00:53:35.993Z,18.73
2017-10-30T00:53:41.170Z,19.15
2017-10-30T00:53:45.816Z,19.07
2017-10-30T00:53:51.107Z,19.03
2017-10-30T00:53:55.816Z,18.97
2017-10-30T00:54:00.123Z,18.50
2017-10-30T00:54:04.345Z,18.55
2017-10-30T00:54:09.355Z,18.20
2017-10-30T00:54:13.583Z,18.07
2017-10-30T00:54:17.875Z,17.10
2017-10-30T00:54:22.869Z,16.60
2017-10-30T00:54:27.100Z,15.00
2017-10-30T00:54:31.347Z,15.20
2017-10-30T00:54:35.640Z,15.20
2017-10-30T00:54:39.860Z,14.80
2017-10-30T00:54:44.103Z,15.20
2017-10-30T00:54:48.367Z,14.75
2017-10-30T00:54:52.631Z,14.73
2017-10-30T00:54:56.859Z,15.40
2017-10-30T00:55:01.118Z,16.55
2017-10-30T00:55:05.342Z,16.25
2017-10-30T00:55:09.606Z,16.23
2017-10-30T00:55:13.869Z,16.05
2017-10-30T00:55:18.103Z,15.65
2017-10-30T00:55:22.353Z,16.05
2017-10-30T00:55:26.604Z,16.47
2017-10-30T00:55:31.104Z,16.15
2017-10-30T00:55:36.300Z,15.80
2017-10-30T00:55:41.003Z,15.70
2017-10-30T00:55:45.280Z,15.00
2017-10-30T00:55:49.598Z,15.30
2017-10-30T00:55:54.772Z,14.43
2017-10-30T00:55:59.316Z,14.10
2017-10-30T00:56:03.952Z,13.83
2017-10-30T00:56:08.399Z,15.73
2017-10-30T00:56:13.300Z,16.75
2017-10-30T00:56:18.142Z,17.50
2017-10-30T00:56:22.396Z,17.27
2017-10-30T00:56:27.685Z,17.10
2017-10-30T00:56:31.918Z,17.13
2017-10-30T00:56:36.167Z,17.50
2017-10-30T00:56:40.430Z,18.35
2017-10-30T00:56:44.666Z,18.60
2017-10-30T00:56:48.916Z,17.95
2017-10-30T00:56:53.157Z,18.23
2017-10-30T00:56:57.404Z,18.50
2017-10-30T00:57:01.633Z,18.65
2017-10-30T00:57:05.869Z,17.53
2017-10-30T00:57:10.115Z,16.30
2017-10-30T00:57:14.389Z,15.15
2017-10-30T00:57:18.629Z,15.80
2017-10-30T00:57:22.879Z,16.50
2017-10-30T00:57:27.128Z,16.60
2017-10-30T00:57:32.133Z,16.40
2017-10-30T00:57:36.376Z,16.00
2017-10-30T00:57:40.612Z,14.80
2017-10-30T00:57:44.849Z,15.13
2017-10-30T00:57:49.097Z,14.75
2017-10-30T00:57:53.341Z,14.25
2017-10-30T00:57:58.357Z,13.95
2017-10-30T00:58:03.198Z,14.15
2017-10-30T00:58:08.414Z,14.35
2017-10-30T00:58:13.053Z,14.25
2017-10-30T00:58:17.411Z,13.60
2017-10-30T00:58:22.591Z,13.10
2017-10-30T00:58:26.918Z,12.37